createdAt,value
2019-03-13T00:02:27.872Z,8.10
2019-03-13T00:04:54.380Z,8.10
2019-03-13T00:07:21.732Z,8.10
2019-03-13T00:09:48.019Z,8.10
2019-03-13T00:12:14.322Z,8.00
2019-03-13T00:14:40.605Z,8.00
2019-03-13T00:17:07.022Z,8.00
2019-03-13T00:19:33.303Z,8.00
2019-03-13T00:21:59.593Z,8.00
2019-03-13T00:24:25.888Z,8.00
2019-03-13T00:26:52.201Z,8.00
2019-03-13T00:29:18.578Z,8.00
2019-03-13T00:31:44.864Z,8.00
2019-03-13T00:34:11.423Z,8.00
2019-03-13T00:36:37.819Z,8.00
2019-03-13T00:39:05.064Z,8.00
2019-03-13T00:41:31.362Z,8.00
2019-03-13T00:43:57.653Z,8.00
2019-03-13T00:46:23.989Z,8.00
2019-03-13T00:48:50.272Z,8.10
2019-03-13T00:51:16.578Z,8.10
2019-03-13T00:53:42.883Z,8.10
2019-03-13T00:56:09.180Z,8.10
2019-03-13T00:58:35.479Z,8.10
2019-03-13T01:01:06.372Z,8.10
2019-03-13T01:03:34.610Z,8.10
2019-03-13T01:06:08.954Z,8.20
2019-03-13T01:08:35.183Z,8.20
2019-03-13T01:11:01.471Z,8.20
2019-03-13T01:13:27.756Z,8.20
2019-03-13T01:15:54.070Z,8.20
2019-03-13T01:18:20.344Z,8.20
2019-03-13T01:20:46.656Z,8.20
2019-03-13T01:23:12.960Z,8.10
2019-03-13T01:25:39.280Z,8.10
2019-03-13T01:28:05.594Z,8.10
2019-03-13T01:30:33.767Z,8.10
2019-03-13T01:33:11.039Z,8.10
2019-03-13T01:35:39.243Z,8.10
2019-03-13T01:38:05.549Z,8.00
2019-03-13T01:40:31.875Z,8.00
2019-03-13T01:42:58.167Z,8.00
2019-03-13T01:45:24.491Z,7.90
2019-03-13T01:47:50.805Z,7.90
2019-03-13T01:50:17.097Z,7.90
2019-03-13T01:52:43.397Z,7.80
2019-03-13T01:55:09.808Z,7.80
2019-03-13T01:57:36.208Z,7.80
2019-03-13T02:00:05.207Z,7.80
2019-03-13T02:02:31.601Z,7.70
2019-03-13T02:04:57.949Z,7.70
2019-03-13T02:07:24.170Z,7.70
2019-03-13T02:09:50.476Z,7.70
2019-03-13T02:12:16.777Z,7.70
2019-03-13T02:14:43.069Z,7.70
2019-03-13T02:17:09.386Z,7.70
2019-03-13T02:19:35.675Z,7.70
2019-03-13T02:22:02.073Z,7.70
2019-03-13T02:24:28.559Z,7.70
2019-03-13T02:26:54.857Z,7.70
2019-03-13T02:29:21.129Z,7.70
2019-03-13T02:31:47.423Z,7.70
2019-03-13T02:34:13.707Z,7.70
2019-03-13T02:36:40.094Z,7.70
2019-03-13T02:39:06.382Z,7.70
2019-03-13T02:41:32.696Z,7.70
2019-03-13T02:43:59.046Z,7.70
2019-03-13T02:46:25.315Z,7.70
2019-03-13T02:48:51.716Z,7.70
2019-03-13T02:51:17.996Z,7.70
2019-03-13T02:53:44.304Z,7.70
2019-03-13T02:56:10.604Z,7.70
2019-03-13T02:58:36.884Z,7.70
2019-03-13T03:01:22.949Z,7.70
2019-03-13T03:03:53.854Z,7.70
2019-03-13T03:06:20.668Z,7.70
2019-03-13T03:08:46.951Z,7.70
2019-03-13T03:11:16.077Z,7.70
2019-03-13T03:13:42.369Z,7.70
2019-03-13T03:16:28.508Z,7.70
2019-03-13T03:19:17.541Z,7.80
2019-03-13T03:22:03.692Z,7.90
2019-03-13T03:24:30.031Z,7.90
2019-03-13T03:27:16.175Z,8.00
2019-03-13T03:30:03.635Z,8.10
2019-03-13T03:32:29.938Z,8.10
2019-03-13T03:34:56.411Z,8.10
2019-03-13T03:37:22.733Z,8.20
2019-03-13T03:39:49.056Z,8.20
2019-03-13T03:42:15.365Z,8.30
2019-03-13T03:44:41.670Z,8.30
2019-03-13T03:47:07.975Z,8.40
2019-03-13T03:49:34.608Z,8.40
2019-03-13T03:52:00.909Z,8.50
2019-03-13T03:54:27.212Z,8.50
2019-03-13T03:56:53.513Z,8.50
2019-03-13T03:59:19.800Z,8.50
2019-03-13T04:01:46.531Z,8.60
2019-03-13T04:04:12.952Z,8.60
2019-03-13T04:06:39.230Z,8.60
2019-03-13T04:09:05.513Z,8.70
2019-03-13T04:11:31.897Z,8.70
2019-03-13T04:13:58.204Z,8.70
2019-03-13T04:16:24.520Z,8.70
2019-03-13T04:18:50.824Z,8.80
2019-03-13T04:21:17.117Z,8.80
2019-03-13T04:23:43.427Z,8.80
2019-03-13T04:26:12.634Z,8.80
2019-03-13T04:28:38.036Z,8.80
2019-03-13T04:31:04.307Z,8.80
2019-03-13T04:33:30.610Z,8.80
2019-03-13T04:35:56.921Z,8.90
2019-03-13T04:38:23.223Z,8.80
2019-03-13T04:40:49.630Z,8.80
2019-03-13T04:43:15.947Z,8.90
2019-03-13T04:45:42.256Z,8.90
2019-03-13T04:48:08.579Z,8.90
2019-03-13T04:50:34.888Z,8.90
2019-03-13T04:53:01.179Z,8.90
2019-03-13T04:55:27.493Z,8.90
2019-03-13T04:57:53.779Z,8.90
2019-03-13T05:00:20.288Z,9.00
2019-03-13T05:02:46.612Z,9.00
2019-03-13T05:05:45.507Z,9.00
2019-03-13T05:08:30.147Z,9.00
2019-03-13T05:10:56.476Z,9.10
2019-03-13T05:13:23.054Z,9.10
2019-03-13T05:15:49.345Z,9.10
2019-03-13T05:18:15.671Z,9.10
2019-03-13T05:20:41.989Z,9.10
2019-03-13T05:23:08.321Z,9.10
2019-03-13T05:25:34.611Z,9.10
2019-03-13T05:28:00.895Z,9.10
2019-03-13T05:30:27.294Z,9.10
2019-03-13T05:32:53.582Z,9.10
2019-03-13T05:35:19.901Z,9.10
2019-03-13T05:37:46.291Z,9.10
2019-03-13T05:40:12.529Z,9.10
2019-03-13T05:42:38.844Z,9.20
2019-03-13T05:45:08.405Z,9.20
2019-03-13T05:47:34.769Z,9.20
2019-03-13T05:50:01.424Z,9.20
2019-03-13T05:52:27.702Z,9.20
2019-03-13T05:54:53.999Z,9.20
2019-03-13T05:57:20.327Z,9.20
2019-03-13T05:59:47.495Z,9.30
2019-03-13T06:02:13.790Z,9.30
2019-03-13T06:04:40.138Z,9.30
2019-03-13T06:07:06.410Z,9.30
2019-03-13T06:09:32.699Z,9.30
2019-03-13T06:11:59.128Z,9.30
2019-03-13T06:14:25.430Z,9.30
2019-03-13T06:16:51.765Z,9.30
2019-03-13T06:19:18.043Z,9.30
2019-03-13T06:21:44.341Z,9.30
2019-03-13T06:24:10.688Z,9.30
2019-03-13T06:26:37.133Z,9.40
2019-03-13T06:29:03.433Z,9.40
2019-03-13T06:31:29.770Z,9.40
2019-03-13T06:33:56.064Z,9.40
2019-03-13T06:36:22.381Z,9.40
2019-03-13T06:38:48.751Z,9.50
2019-03-13T06:41:15.052Z,9.50
2019-03-13T06:43:41.401Z,9.50
2019-03-13T06:46:08.071Z,9.50
2019-03-13T06:48:34.401Z,9.50
2019-03-13T06:51:00.726Z,9.50
2019-03-13T06:53:27.031Z,9.50
2019-03-13T06:55:53.496Z,9.60
2019-03-13T06:58:21.799Z,9.60
2019-03-13T07:01:02.235Z,9.60
2019-03-13T07:03:36.443Z,9.60
2019-03-13T07:06:13.551Z,9.60
2019-03-13T07:08:44.693Z,9.70
2019-03-13T07:11:21.658Z,9.70
2019-03-13T07:14:04.725Z,9.70
2019-03-13T07:16:38.988Z,9.80
2019-03-13T07:19:10.147Z,9.80
2019-03-13T07:21:54.905Z,9.80
2019-03-13T07:24:39.642Z,9.80
2019-03-13T07:27:19.593Z,9.90
2019-03-13T07:29:56.868Z,9.90
2019-03-13T07:32:25.056Z,10.00
2019-03-13T07:34:59.250Z,10.00
2019-03-13T07:37:42.533Z,10.00
2019-03-13T07:40:13.675Z,10.10
2019-03-13T07:42:41.870Z,10.10
2019-03-13T07:45:14.054Z,10.10
2019-03-13T07:47:45.233Z,10.10
2019-03-13T07:50:13.645Z,10.10
2019-03-13T07:52:41.814Z,10.10
2019-03-13T07:55:18.944Z,10.10
2019-03-13T07:58:03.760Z,10.10
2019-03-13T08:00:31.953Z,10.10
2019-03-13T08:03:15.249Z,10.10
2019-03-13T08:05:59.785Z,10.10
2019-03-13T08:08:33.991Z,10.10
2019-03-13T08:11:17.081Z,10.00
2019-03-13T08:13:53.946Z,10.00
2019-03-13T08:16:22.593Z,10.10
2019-03-13T08:18:54.125Z,10.00
2019-03-13T08:21:28.072Z,10.00
2019-03-13T08:24:12.572Z,10.00
2019-03-13T08:26:40.792Z,10.00
2019-03-13T08:29:11.959Z,10.00
2019-03-13T08:31:40.127Z,10.00
2019-03-13T08:34:25.358Z,10.00
2019-03-13T08:37:02.212Z,10.00
2019-03-13T08:39:39.373Z,10.00
2019-03-13T08:42:07.513Z,10.00
2019-03-13T08:44:38.697Z,10.00
2019-03-13T08:47:24.702Z,10.00
2019-03-13T08:49:58.664Z,10.00
2019-03-13T08:52:43.559Z,10.00
2019-03-13T08:55:30.150Z,10.00
2019-03-13T08:58:14.741Z,9.90
2019-03-13T09:00:57.802Z,9.90
2019-03-13T09:03:28.680Z,9.90
2019-03-13T09:05:56.863Z,9.90
2019-03-13T09:08:25.055Z,9.80
2019-03-13T09:10:59.288Z,9.80
2019-03-13T09:13:44.057Z,9.80
2019-03-13T09:16:19.698Z,9.70
2019-03-13T09:18:51.077Z,9.70
2019-03-13T09:21:19.251Z,9.70
2019-03-13T09:23:50.135Z,9.70
2019-03-13T09:26:21.315Z,9.70
2019-03-13T09:28:52.508Z,9.70
2019-03-13T09:31:26.386Z,9.70
2019-03-13T09:34:00.302Z,9.80
2019-03-13T09:36:31.497Z,9.90
2019-03-13T09:39:16.098Z,9.90
2019-03-13T09:41:49.992Z,10.00
2019-03-13T09:44:20.898Z,10.10
2019-03-13T09:47:00.938Z,10.20
2019-03-13T09:49:45.538Z,10.20
2019-03-13T09:52:16.447Z,10.30
2019-03-13T09:54:50.597Z,10.30
2019-03-13T09:57:27.803Z,10.30
2019-03-13T10:00:12.608Z,10.30
2019-03-13T10:02:40.788Z,10.40
2019-03-13T10:05:25.638Z,10.40
2019-03-13T10:07:59.653Z,10.40
2019-03-13T10:10:42.714Z,10.40
2019-03-13T10:13:29.137Z,10.40
2019-03-13T10:16:00.023Z,10.40
2019-03-13T10:18:30.833Z,10.50
2019-03-13T10:21:11.131Z,10.50
2019-03-13T10:23:45.299Z,10.60
2019-03-13T10:26:22.761Z,10.70
2019-03-13T10:28:59.692Z,10.80
2019-03-13T10:31:39.873Z,10.90
2019-03-13T10:34:24.946Z,11.00
2019-03-13T10:36:58.965Z,11.10
2019-03-13T10:39:27.161Z,11.30
2019-03-13T10:42:13.265Z,11.40
2019-03-13T10:44:44.287Z,11.40
2019-03-13T10:47:12.479Z,11.50
2019-03-13T10:49:46.404Z,11.50
2019-03-13T10:52:31.248Z,11.50
2019-03-13T10:55:05.367Z,11.50
2019-03-13T10:57:33.560Z,11.50
2019-03-13T11:00:07.815Z,11.40
2019-03-13T11:02:45.088Z,11.40
2019-03-13T11:05:25.380Z,11.30
2019-03-13T11:07:56.639Z,11.20
2019-03-13T11:10:30.887Z,11.20
2019-03-13T11:13:04.965Z,11.20
2019-03-13T11:15:33.127Z,11.10
2019-03-13T11:18:01.330Z,11.10
2019-03-13T11:20:47.414Z,11.00
2019-03-13T11:23:15.597Z,10.90
2019-03-13T11:25:43.794Z,10.80
2019-03-13T11:28:15.012Z,10.80
2019-03-13T11:31:01.362Z,10.70
2019-03-13T11:33:38.239Z,10.60
2019-03-13T11:36:18.303Z,10.60
2019-03-13T11:38:46.483Z,10.50
2019-03-13T11:41:14.700Z,10.40
2019-03-13T11:43:42.938Z,10.40
2019-03-13T11:46:11.266Z,10.30
2019-03-13T11:48:51.536Z,10.30
2019-03-13T11:51:22.776Z,10.20
2019-03-13T11:53:50.965Z,10.10
2019-03-13T11:56:35.593Z,10.10
2019-03-13T11:59:06.478Z,10.10
2019-03-13T12:01:50.954Z,10.10
2019-03-13T12:04:24.932Z,10.00
2019-03-13T12:06:56.364Z,10.00
2019-03-13T12:09:27.517Z,10.00
2019-03-13T12:12:07.773Z,10.00
2019-03-13T12:14:35.944Z,10.00
2019-03-13T12:17:22.176Z,10.00
2019-03-13T12:19:50.741Z,10.00
2019-03-13T12:22:28.026Z,10.00
2019-03-13T12:25:05.073Z,10.10
2019-03-13T12:27:51.203Z,10.10
2019-03-13T12:30:19.436Z,10.00
2019-03-13T12:32:50.307Z,10.10
2019-03-13T12:35:27.318Z,10.00
2019-03-13T12:37:58.322Z,10.00
2019-03-13T12:40:29.181Z,10.00
2019-03-13T12:43:06.377Z,10.00
2019-03-13T12:45:40.289Z,10.00
2019-03-13T12:48:25.089Z,10.00
2019-03-13T12:50:59.036Z,10.00
2019-03-13T12:53:29.903Z,10.10
2019-03-13T12:56:03.856Z,10.10
2019-03-13T12:58:32.080Z,10.10
2019-03-13T13:01:00.351Z,10.20
2019-03-13T13:03:28.815Z,10.20
2019-03-13T13:06:02.715Z,10.30
2019-03-13T13:08:39.876Z,10.30
2019-03-13T13:11:14.053Z,10.40
2019-03-13T13:13:54.550Z,10.50
2019-03-13T13:16:28.699Z,10.50
2019-03-13T13:18:54.986Z,10.60
2019-03-13T13:21:21.392Z,10.60
2019-03-13T13:23:47.675Z,10.60
2019-03-13T13:26:13.967Z,10.60
2019-03-13T13:28:40.265Z,10.60
2019-03-13T13:31:06.667Z,10.60
2019-03-13T13:33:33.212Z,10.50
2019-03-13T13:35:59.734Z,10.50
2019-03-13T13:38:26.106Z,10.50
2019-03-13T13:40:52.401Z,10.50
2019-03-13T13:43:18.706Z,10.50
2019-03-13T13:45:46.545Z,10.50
2019-03-13T13:48:13.371Z,10.60
2019-03-13T13:50:39.666Z,10.50
2019-03-13T13:53:05.961Z,10.50
2019-03-13T13:55:32.536Z,10.50
2019-03-13T13:57:58.837Z,10.50
2019-03-13T14:00:25.105Z,10.40
2019-03-13T14:02:51.682Z,10.40
2019-03-13T14:05:18.249Z,10.30
2019-03-13T14:07:44.562Z,10.20
2019-03-13T14:10:11.722Z,10.10
2019-03-13T14:12:38.531Z,10.10
2019-03-13T14:15:10.091Z,10.00
2019-03-13T14:17:36.423Z,10.10
2019-03-13T14:20:05.277Z,10.00
2019-03-13T14:22:31.589Z,10.10
2019-03-13T14:24:58.125Z,10.10
2019-03-13T14:27:24.451Z,10.10
2019-03-13T14:29:50.852Z,10.10
2019-03-13T14:32:17.144Z,10.20
2019-03-13T14:34:43.468Z,10.30
2019-03-13T14:37:09.805Z,10.30
2019-03-13T14:39:36.042Z,10.40
2019-03-13T14:42:02.467Z,10.40
2019-03-13T14:44:28.755Z,10.40
2019-03-13T14:46:55.310Z,10.40
2019-03-13T14:49:21.861Z,10.40
2019-03-13T14:51:48.505Z,10.30
2019-03-13T14:54:15.059Z,10.30
2019-03-13T14:56:41.257Z,10.30
2019-03-13T14:59:07.651Z,10.30
2019-03-13T15:01:34.050Z,10.30
2019-03-13T15:04:00.338Z,10.20
2019-03-13T15:06:26.655Z,10.20
2019-03-13T15:08:52.948Z,10.20
2019-03-13T15:11:19.255Z,10.20
2019-03-13T15:13:45.558Z,10.20
2019-03-13T15:16:12.103Z,10.30
2019-03-13T15:18:38.415Z,10.40
2019-03-13T15:21:04.797Z,10.40
2019-03-13T15:23:31.071Z,10.50
2019-03-13T15:25:57.374Z,10.60
2019-03-13T15:28:23.664Z,10.70
2019-03-13T15:30:49.936Z,10.70
2019-03-13T15:33:16.228Z,10.70
2019-03-13T15:35:42.538Z,10.70
2019-03-13T15:38:08.853Z,10.60
2019-03-13T15:40:35.130Z,10.60
2019-03-13T15:43:01.413Z,10.50
2019-03-13T15:45:29.503Z,10.40
2019-03-13T15:47:55.832Z,10.40
2019-03-13T15:50:22.477Z,10.30
2019-03-13T15:52:48.738Z,10.30
2019-03-13T15:55:16.214Z,10.20
2019-03-13T15:57:42.632Z,10.20
2019-03-13T16:00:12.236Z,10.20
2019-03-13T16:02:38.526Z,10.20
2019-03-13T16:05:05.366Z,10.20
2019-03-13T16:07:31.618Z,10.20
2019-03-13T16:09:57.913Z,10.20
2019-03-13T16:12:24.220Z,10.30
2019-03-13T16:14:50.527Z,10.30
2019-03-13T16:17:17.122Z,10.40
2019-03-13T16:19:43.451Z,10.40
2019-03-13T16:22:10.919Z,10.50
2019-03-13T16:24:37.160Z,10.50
2019-03-13T16:27:03.483Z,10.60
2019-03-13T16:29:30.899Z,10.60
2019-03-13T16:31:57.420Z,10.60
2019-03-13T16:34:23.696Z,10.60
2019-03-13T16:36:50.020Z,10.60
2019-03-13T16:39:16.308Z,10.60
2019-03-13T16:41:42.623Z,10.60
2019-03-13T16:44:08.912Z,10.60
2019-03-13T16:46:35.188Z,10.70
2019-03-13T16:49:01.486Z,10.60
2019-03-13T16:51:27.777Z,10.70
2019-03-13T16:53:54.171Z,10.60
2019-03-13T16:56:20.471Z,10.60
2019-03-13T16:58:46.794Z,10.70
2019-03-13T17:01:13.193Z,10.70
2019-03-13T17:03:42.484Z,10.70
2019-03-13T17:06:08.876Z,10.70
2019-03-13T17:08:35.157Z,10.70
2019-03-13T17:11:01.476Z,10.70
2019-03-13T17:13:27.772Z,10.70
2019-03-13T17:15:54.272Z,10.80
2019-03-13T17:18:20.538Z,10.80
2019-03-13T17:20:46.936Z,10.80
2019-03-13T17:23:13.266Z,10.80
2019-03-13T17:25:39.544Z,10.80
2019-03-13T17:28:05.889Z,10.80
2019-03-13T17:30:32.377Z,10.80
2019-03-13T17:32:59.066Z,10.80
2019-03-13T17:35:25.372Z,10.80
2019-03-13T17:37:51.898Z,10.90
2019-03-13T17:40:23.283Z,10.80
2019-03-13T17:42:50.168Z,10.90
2019-03-13T17:45:19.121Z,10.90
2019-03-13T17:47:45.390Z,10.90
2019-03-13T17:50:13.965Z,10.90
2019-03-13T17:52:40.254Z,10.90
2019-03-13T17:55:08.839Z,10.90
2019-03-13T17:57:35.135Z,10.90
2019-03-13T18:00:01.955Z,10.90
2019-03-13T18:02:28.268Z,10.90
2019-03-13T18:04:54.552Z,10.80
2019-03-13T18:07:20.833Z,10.80
2019-03-13T18:09:47.151Z,10.80
2019-03-13T18:12:13.424Z,10.80
2019-03-13T18:14:39.809Z,10.80
2019-03-13T18:17:06.092Z,10.80
2019-03-13T18:19:32.477Z,10.80
2019-03-13T18:21:58.858Z,10.70
2019-03-13T18:24:25.160Z,10.70
2019-03-13T18:26:51.476Z,10.70
2019-03-13T18:29:17.776Z,10.60
2019-03-13T18:31:44.064Z,10.60
2019-03-13T18:34:10.369Z,10.60
2019-03-13T18:36:36.643Z,10.50
2019-03-13T18:39:04.339Z,10.50
2019-03-13T18:41:30.648Z,10.50
2019-03-13T18:43:56.939Z,10.40
2019-03-13T18:46:23.251Z,10.40
2019-03-13T18:48:49.592Z,10.40
2019-03-13T18:51:15.880Z,10.30
2019-03-13T18:53:42.151Z,10.30
2019-03-13T18:56:08.442Z,10.30
2019-03-13T18:58:35.095Z,10.20
2019-03-13T19:01:01.390Z,10.20
2019-03-13T19:03:27.718Z,10.20
2019-03-13T19:05:54.836Z,10.10
2019-03-13T19:08:21.273Z,10.10
2019-03-13T19:10:47.579Z,10.10
2019-03-13T19:13:13.895Z,10.00
2019-03-13T19:15:40.622Z,10.00
2019-03-13T19:18:07.067Z,10.00
2019-03-13T19:20:33.373Z,9.90
2019-03-13T19:22:59.866Z,9.90
2019-03-13T19:25:26.273Z,9.90
2019-03-13T19:27:52.859Z,9.80
2019-03-13T19:30:30.557Z,9.80
2019-03-13T19:32:57.016Z,9.70
2019-03-13T19:35:23.395Z,9.70
2019-03-13T19:37:49.686Z,9.70
2019-03-13T19:40:21.249Z,9.60
2019-03-13T19:42:47.621Z,9.60
2019-03-13T19:45:23.387Z,9.60
2019-03-13T19:47:49.971Z,9.50
2019-03-13T19:50:16.262Z,9.40
2019-03-13T19:52:42.571Z,9.40
2019-03-13T19:55:12.633Z,9.40
2019-03-13T19:57:39.014Z,9.30
2019-03-13T20:00:15.118Z,9.30
2019-03-13T20:02:41.726Z,9.30
2019-03-13T20:05:10.845Z,9.20
2019-03-13T20:07:37.186Z,9.20
2019-03-13T20:10:07.250Z,9.20
2019-03-13T20:12:33.556Z,9.20
2019-03-13T20:14:59.843Z,9.10
2019-03-13T20:17:26.117Z,9.10
2019-03-13T20:19:52.463Z,9.10
2019-03-13T20:22:18.714Z,9.10
2019-03-13T20:24:44.995Z,9.10
2019-03-13T20:27:11.307Z,9.00
2019-03-13T20:29:37.706Z,9.00
2019-03-13T20:32:04.017Z,9.00
2019-03-13T20:34:30.309Z,9.00
2019-03-13T20:36:58.735Z,9.00
2019-03-13T20:39:24.741Z,8.90
2019-03-13T20:41:54.144Z,8.90
2019-03-13T20:44:19.864Z,8.90
2019-03-13T20:46:46.189Z,8.90
2019-03-13T20:49:12.459Z,8.90
2019-03-13T20:51:38.680Z,8.90
2019-03-13T20:54:05.100Z,8.80
2019-03-13T20:56:31.729Z,8.80
2019-03-13T20:58:58.031Z,8.80
2019-03-13T21:01:24.433Z,8.80
2019-03-13T21:03:50.832Z,8.80
2019-03-13T21:06:17.137Z,8.80
2019-03-13T21:08:43.477Z,8.80
2019-03-13T21:11:09.737Z,8.80
2019-03-13T21:13:36.022Z,8.80
2019-03-13T21:16:02.335Z,8.80
2019-03-13T21:18:28.590Z,8.80
2019-03-13T21:20:54.924Z,8.70
2019-03-13T21:23:21.202Z,8.70
2019-03-13T21:25:47.462Z,8.70
2019-03-13T21:28:13.770Z,8.70
2019-03-13T21:30:40.315Z,8.70
2019-03-13T21:33:06.645Z,8.70
2019-03-13T21:35:32.918Z,8.70
2019-03-13T21:37:59.471Z,8.70
2019-03-13T21:40:26.564Z,8.70
2019-03-13T21:42:54.787Z,8.70
2019-03-13T21:45:22.724Z,8.70
2019-03-13T21:47:49.531Z,8.70
2019-03-13T21:50:17.014Z,8.70
2019-03-13T21:52:43.407Z,8.70
2019-03-13T21:55:12.601Z,8.70
2019-03-13T21:57:39.277Z,8.70
2019-03-13T22:00:15.521Z,8.70
2019-03-13T22:02:41.911Z,8.70
2019-03-13T22:05:08.304Z,8.70
2019-03-13T22:07:34.696Z,8.60
2019-03-13T22:10:01.212Z,8.60
2019-03-13T22:12:27.510Z,8.60
2019-03-13T22:14:53.782Z,8.60
2019-03-13T22:17:20.092Z,8.60
2019-03-13T22:19:46.385Z,8.60
2019-03-13T22:22:12.662Z,8.60
2019-03-13T22:24:39.006Z,8.60
2019-03-13T22:27:05.290Z,8.70
2019-03-13T22:29:31.568Z,8.70
2019-03-13T22:31:57.873Z,8.70
2019-03-13T22:34:24.150Z,8.70
2019-03-13T22:36:50.441Z,8.70
2019-03-13T22:39:16.743Z,8.70
2019-03-13T22:41:43.039Z,8.80
2019-03-13T22:44:09.341Z,8.80
2019-03-13T22:46:35.654Z,8.90
2019-03-13T22:49:02.121Z,8.90
2019-03-13T22:51:28.344Z,8.90
2019-03-13T22:53:54.615Z,9.00
2019-03-13T22:56:20.916Z,9.00
2019-03-13T22:58:47.359Z,9.10
2019-03-13T23:01:15.016Z,9.10
2019-03-13T23:03:41.366Z,9.20
2019-03-13T23:06:07.663Z,9.20
2019-03-13T23:08:33.960Z,9.30
2019-03-13T23:11:00.227Z,9.30
2019-03-13T23:13:26.517Z,9.30
2019-03-13T23:15:52.818Z,9.30
2019-03-13T23:18:19.100Z,9.40
2019-03-13T23:20:45.604Z,9.40
2019-03-13T23:23:11.878Z,9.40
2019-03-13T23:25:38.170Z,9.50
2019-03-13T23:28:04.462Z,9.50
2019-03-13T23:30:30.755Z,9.50
2019-03-13T23:32:57.065Z,9.50
2019-03-13T23:35:23.623Z,9.50
2019-03-13T23:37:50.026Z,9.60
2019-03-13T23:40:16.440Z,9.50
2019-03-13T23:42:42.720Z,9.60
2019-03-13T23:45:09.436Z,9.60
2019-03-13T23:47:35.627Z,9.60
2019-03-13T23:50:02.322Z,9.70
2019-03-13T23:52:28.595Z,9.70
2019-03-13T23:54:54.883Z,9.70
2019-03-13T23:57:21.191Z,9.70
2019-03-13T23:59:47.614Z,9.70
